Hauptseite
METAR-TAF:

METAR-TAF

Flughäfen :

Eleftherios-Venizelos-Flughafen Athen

Athen, Griechenland

Breite: 37-56N, Länge: 023-56E, Höhe: 94 m

Beobachtung

Neuester Wetterbericht von vor 23 Minuten, um 12:20 UTC
Wind 8 kt aus Ost/Südost
Temperatur 24°C
Luftfeuchtigkeit 50%
Luftdruck 1019 hPa
Sichtweite 10 km oder mehr
keine Wolken unter 1500 m und keine Kumulonimbus oder Gewitterwolken

METAR: LGAV 261220Z 12008KT CAVOK 24/13 Q1019 NOSIG

Zeit: 15:43 (12:43 UTC)

Prognose

Neuester Wetterbericht von vor 1 Stunde und 43 Minuten, um 11:00 UTC
Gültige Prognose vom 26 um 12 UTC bis 27 um 12 UTC
Wind 8 kt aus Ost/Nordost
Sichtweite 10 km oder mehr
Leicht bewölkt in der Höhe von 2500 ft
Übergehend zu
vom 26 um 16 UTC bis 26 um 18 UTC
Wind 3 kt aus unterschiedlichen Richtungen

TAF: LGAV 261100Z 2612/2712 07008KT 9999 FEW025 BECMG 2616/2618 VRB03KT

Wetterbeobachtungen und Prognosen von mehr als 4000 Flughäfen (METAR und TAF Bericht).

Die verfügbaren Stationen werden durch gelbe und rote Markierungen auf der Karte dargestellt.

Führen Sie die Maus auf sie, um den Namen der Station zu sehen.

Darauf klicken, um die Beobachtung von Wetterbeobachtungen und Prognosen zu sehen.

Um die Karte zu ändern : klicken Sie auf den grünen Tasten mit einem schwarzen Kreuz Zum Vergrößern, auf den grünen Button mit einem Gedankenstrich zu verkleinern, oder auf die grünen Pfeile für benachbarte Karten.


METAR-TAF: